createdAt,value
2019-02-11T00:00:36.561Z,64.91
2019-02-11T00:03:07.804Z,65.55
2019-02-11T00:05:39.021Z,65.51
2019-02-11T00:08:10.196Z,65.80
2019-02-11T00:10:41.346Z,66.16
2019-02-11T00:13:12.493Z,66.27
2019-02-11T00:15:43.664Z,66.92
2019-02-11T00:18:14.808Z,66.60
2019-02-11T00:20:46.034Z,67.10
2019-02-11T00:23:17.343Z,67.25
2019-02-11T00:25:48.610Z,67.50
2019-02-11T00:28:19.830Z,67.16
2019-02-11T00:30:51.197Z,67.27
2019-02-11T00:33:22.454Z,66.61
2019-02-11T00:35:53.675Z,66.23
2019-02-11T00:38:24.923Z,66.24
2019-02-11T00:40:56.093Z,66.52
2019-02-11T00:43:28.233Z,66.60
2019-02-11T00:45:59.424Z,66.55
2019-02-11T00:48:30.569Z,66.70
2019-02-11T00:51:02.857Z,67.09
2019-02-11T00:53:34.061Z,67.54
2019-02-11T00:56:05.253Z,68.11
2019-02-11T00:58:36.399Z,67.66
2019-02-11T01:01:07.576Z,67.84
2019-02-11T01:03:38.948Z,67.73
2019-02-11T01:06:10.122Z,67.55
2019-02-11T01:08:41.337Z,67.65
2019-02-11T01:11:12.578Z,67.63
2019-02-11T01:13:43.773Z,67.58
2019-02-11T01:16:14.989Z,67.14
2019-02-11T01:18:46.183Z,67.11
2019-02-11T01:21:17.329Z,67.28
2019-02-11T01:23:48.500Z,66.93
2019-02-11T01:26:19.653Z,67.18
2019-02-11T01:28:50.797Z,67.18
2019-02-11T01:31:21.918Z,67.01
2019-02-11T01:33:53.148Z,66.88
2019-02-11T01:36:24.326Z,66.78
2019-02-11T01:38:55.523Z,66.92
2019-02-11T01:41:26.776Z,66.78
2019-02-11T01:43:57.960Z,66.73
2019-02-11T01:46:29.184Z,66.65
2019-02-11T01:49:00.350Z,66.42
2019-02-11T01:51:31.623Z,66.34
2019-02-11T01:54:02.807Z,65.92
2019-02-11T01:56:33.982Z,65.67
2019-02-11T01:59:05.210Z,65.57
2019-02-11T02:01:36.406Z,65.35
2019-02-11T02:04:07.596Z,65.23
2019-02-11T02:06:38.752Z,65.15
2019-02-11T02:09:09.942Z,64.96
2019-02-11T02:11:41.627Z,64.97
2019-02-11T02:14:12.804Z,64.70
2019-02-11T02:16:44.025Z,64.66
2019-02-11T02:19:15.153Z,64.62
2019-02-11T02:21:46.330Z,64.60
2019-02-11T02:24:17.582Z,64.57
2019-02-11T02:26:48.752Z,64.47
2019-02-11T02:29:19.970Z,64.32
2019-02-11T02:31:51.234Z,64.24
2019-02-11T02:34:22.553Z,64.13
2019-02-11T02:36:53.987Z,64.06
2019-02-11T02:39:25.302Z,63.99
2019-02-11T02:41:56.565Z,63.82
2019-02-11T02:44:27.944Z,63.80
2019-02-11T02:46:59.235Z,63.81
2019-02-11T02:49:30.488Z,63.81
2019-02-11T02:52:01.779Z,63.80
2019-02-11T02:54:33.127Z,63.80
2019-02-11T02:57:04.361Z,63.85
2019-02-11T02:59:35.645Z,64.00
2019-02-11T03:02:07.052Z,65.24
2019-02-11T03:04:38.376Z,64.50
2019-02-11T03:07:09.707Z,65.07
2019-02-11T03:09:40.953Z,64.94
2019-02-11T03:12:12.213Z,65.33
2019-02-11T03:14:43.475Z,65.30
2019-02-11T03:17:14.733Z,65.27
2019-02-11T03:19:46.038Z,65.47
2019-02-11T03:22:17.200Z,65.27
2019-02-11T03:24:48.492Z,65.53
2019-02-11T03:27:19.690Z,65.34
2019-02-11T03:29:50.984Z,65.17
2019-02-11T03:32:22.261Z,65.15
2019-02-11T03:34:53.502Z,65.05
2019-02-11T03:37:24.791Z,64.92
2019-02-11T03:39:56.155Z,64.96
2019-02-11T03:42:27.455Z,64.96
2019-02-11T03:44:59.813Z,65.01
2019-02-11T03:47:31.147Z,64.99
2019-02-11T03:50:02.565Z,64.96
2019-02-11T03:52:33.820Z,65.05
2019-02-11T03:55:05.120Z,65.14
2019-02-11T03:57:36.391Z,65.09
2019-02-11T04:00:08.464Z,64.94
2019-02-11T04:02:39.713Z,64.98
2019-02-11T04:05:10.922Z,64.91
2019-02-11T04:07:42.181Z,64.76
2019-02-11T04:10:13.408Z,64.70
2019-02-11T04:12:44.854Z,64.59
2019-02-11T04:15:16.112Z,64.60
2019-02-11T04:17:48.441Z,64.56
2019-02-11T04:20:19.675Z,64.58
2019-02-11T04:22:50.915Z,64.62
2019-02-11T04:25:22.466Z,64.60
2019-02-11T04:27:53.689Z,64.68
2019-02-11T04:30:24.949Z,64.63
2019-02-11T04:32:56.361Z,64.71
2019-02-11T04:35:27.569Z,64.66
2019-02-11T04:37:58.844Z,64.51
2019-02-11T04:40:30.080Z,64.54
2019-02-11T04:43:01.498Z,64.48
2019-02-11T04:45:32.752Z,64.41
2019-02-11T04:48:04.076Z,64.44
2019-02-11T04:50:35.310Z,64.36
2019-02-11T04:53:06.813Z,64.29
2019-02-11T04:55:38.141Z,64.40
2019-02-11T04:58:09.551Z,64.30
2019-02-11T05:00:40.859Z,64.24
2019-02-11T05:03:12.689Z,64.20
2019-02-11T05:05:44.067Z,64.19
2019-02-11T05:08:15.330Z,64.11
2019-02-11T05:10:46.605Z,63.99
2019-02-11T05:13:17.860Z,63.95
2019-02-11T05:15:49.171Z,63.87
2019-02-11T05:18:20.616Z,63.83
2019-02-11T05:20:51.815Z,63.75
2019-02-11T05:23:23.059Z,63.69
2019-02-11T05:25:54.358Z,63.62
2019-02-11T05:28:25.627Z,63.54
2019-02-11T05:30:56.877Z,63.44
2019-02-11T05:33:28.527Z,63.40
2019-02-11T05:35:59.830Z,63.35
2019-02-11T05:38:31.363Z,63.28
2019-02-11T05:41:02.781Z,63.20
2019-02-11T05:43:34.054Z,63.15
2019-02-11T05:46:05.289Z,63.12
2019-02-11T05:48:36.526Z,63.10
2019-02-11T05:51:07.756Z,63.02
2019-02-11T05:53:39.023Z,62.91
2019-02-11T05:56:10.310Z,62.91
2019-02-11T05:58:41.663Z,62.92
2019-02-11T06:01:12.969Z,62.88
2019-02-11T06:03:44.282Z,62.84
2019-02-11T06:06:15.608Z,62.81
2019-02-11T06:08:47.038Z,62.74
2019-02-11T06:11:18.412Z,62.72
2019-02-11T06:13:49.675Z,62.69
2019-02-11T06:16:20.954Z,62.65
2019-02-11T06:18:52.178Z,62.67
2019-02-11T06:21:23.505Z,62.62
2019-02-11T06:23:54.777Z,62.57
2019-02-11T06:26:26.108Z,62.51
2019-02-11T06:28:57.357Z,62.49
2019-02-11T06:31:28.700Z,62.48
2019-02-11T06:33:59.967Z,62.45
2019-02-11T06:36:31.448Z,62.50
2019-02-11T06:39:02.745Z,62.48
2019-02-11T06:41:34.132Z,62.50
2019-02-11T06:44:05.379Z,62.53
2019-02-11T06:46:36.631Z,62.52
2019-02-11T06:49:07.949Z,62.52
2019-02-11T06:51:39.330Z,62.47
2019-02-11T06:54:10.661Z,62.50
2019-02-11T06:56:41.937Z,62.46
2019-02-11T06:59:13.288Z,62.40
2019-02-11T07:01:45.442Z,62.37
2019-02-11T07:04:16.735Z,62.36
2019-02-11T07:06:48.086Z,62.34
2019-02-11T07:09:19.327Z,62.34
2019-02-11T07:11:50.588Z,62.37
2019-02-11T07:14:21.931Z,62.34
2019-02-11T07:16:53.312Z,62.31
2019-02-11T07:19:24.571Z,62.29
2019-02-11T07:21:55.858Z,62.27
2019-02-11T07:24:27.149Z,62.25
2019-02-11T07:26:59.584Z,62.24
2019-02-11T07:29:31.079Z,62.26
2019-02-11T07:32:02.395Z,62.28
2019-02-11T07:34:33.798Z,62.28
2019-02-11T07:37:05.116Z,62.28
2019-02-11T07:39:36.375Z,62.40
2019-02-11T07:42:20.998Z,62.43
2019-02-11T07:44:57.333Z,62.47
2019-02-11T07:47:28.605Z,62.50
2019-02-11T07:49:59.939Z,62.52
2019-02-11T07:52:31.220Z,62.54
2019-02-11T07:55:02.541Z,62.53
2019-02-11T07:57:33.953Z,62.54
2019-02-11T08:00:05.438Z,62.50
2019-02-11T08:02:36.851Z,62.49
2019-02-11T08:05:08.637Z,62.42
2019-02-11T08:07:39.892Z,62.39
2019-02-11T08:10:11.175Z,62.32
2019-02-11T08:12:42.844Z,62.32
2019-02-11T08:15:14.196Z,62.26
2019-02-11T08:17:46.856Z,62.18
2019-02-11T08:20:18.239Z,62.10
2019-02-11T08:22:49.556Z,61.97
2019-02-11T08:25:20.767Z,61.96
2019-02-11T08:27:52.203Z,61.89
2019-02-11T08:30:23.396Z,61.86
2019-02-11T08:32:54.688Z,61.54
2019-02-11T08:35:25.910Z,61.67
2019-02-11T08:37:57.127Z,61.66
2019-02-11T08:40:28.308Z,61.78
2019-02-11T08:42:59.580Z,61.86
2019-02-11T08:45:30.843Z,61.95
2019-02-11T08:48:02.033Z,62.03
2019-02-11T08:50:33.259Z,62.09
2019-02-11T08:53:04.518Z,62.12
2019-02-11T08:55:35.702Z,62.09
2019-02-11T08:58:06.926Z,62.13
2019-02-11T09:00:38.207Z,62.02
2019-02-11T09:03:09.441Z,62.04
2019-02-11T09:05:41.660Z,62.06
2019-02-11T09:08:12.805Z,62.07
2019-02-11T09:10:43.975Z,62.07
2019-02-11T09:13:15.187Z,61.96
2019-02-11T09:15:46.391Z,61.79
2019-02-11T09:18:17.588Z,61.42
2019-02-11T09:20:48.794Z,61.34
2019-02-11T09:23:20.019Z,61.33
2019-02-11T09:25:51.475Z,61.37
2019-02-11T09:28:22.706Z,61.36
2019-02-11T09:30:54.012Z,61.40
2019-02-11T09:33:25.230Z,61.33
2019-02-11T09:35:56.523Z,61.37
2019-02-11T09:38:27.735Z,61.33
2019-02-11T09:40:59.015Z,61.43
2019-02-11T09:43:30.267Z,61.52
2019-02-11T09:46:03.939Z,61.60
2019-02-11T09:48:35.468Z,61.65
2019-02-11T09:51:07.208Z,61.70
2019-02-11T09:53:38.434Z,61.66
2019-02-11T09:56:09.615Z,61.52
2019-02-11T09:58:40.779Z,61.40
2019-02-11T10:01:12.276Z,61.48
2019-02-11T10:03:43.414Z,61.32
2019-02-11T10:06:14.644Z,60.73
2019-02-11T10:08:46.972Z,60.53
2019-02-11T10:11:18.229Z,60.40
2019-02-11T10:13:49.408Z,60.21
2019-02-11T10:16:22.267Z,60.00
2019-02-11T10:18:53.835Z,59.77
2019-02-11T10:21:25.180Z,59.65
2019-02-11T10:23:56.492Z,59.88
2019-02-11T10:26:27.745Z,59.27
2019-02-11T10:28:58.994Z,59.43
2019-02-11T10:31:30.108Z,58.92
2019-02-11T10:34:01.300Z,58.97
2019-02-11T10:36:33.592Z,58.88
2019-02-11T10:39:05.987Z,58.65
2019-02-11T10:41:37.214Z,58.05
2019-02-11T10:44:08.392Z,57.51
2019-02-11T10:46:39.587Z,57.65
2019-02-11T10:49:10.817Z,57.29
2019-02-11T10:51:43.701Z,56.96
2019-02-11T10:54:15.090Z,57.14
2019-02-11T10:56:47.370Z,56.99
2019-02-11T10:59:18.596Z,56.87
2019-02-11T11:01:49.812Z,57.10
2019-02-11T11:04:21.033Z,57.70
2019-02-11T11:06:52.224Z,58.29
2019-02-11T11:09:23.423Z,58.75
2019-02-11T11:11:54.637Z,59.05
2019-02-11T11:14:25.982Z,59.29
2019-02-11T11:16:57.126Z,59.44
2019-02-11T11:19:28.331Z,59.58
2019-02-11T11:21:59.612Z,59.59
2019-02-11T11:24:30.765Z,59.69
2019-02-11T11:27:01.932Z,59.54
2019-02-11T11:29:34.354Z,59.50
2019-02-11T11:32:05.640Z,59.43
2019-02-11T11:34:36.969Z,59.17
2019-02-11T11:37:08.186Z,58.89
2019-02-11T11:39:39.383Z,58.44
2019-02-11T11:42:11.845Z,58.48
2019-02-11T11:44:43.206Z,58.22
2019-02-11T11:47:14.500Z,58.07
2019-02-11T11:49:45.714Z,58.09
2019-02-11T11:52:16.940Z,57.74
2019-02-11T11:54:48.135Z,56.88
2019-02-11T11:57:19.397Z,56.54
2019-02-11T11:59:51.985Z,55.16
2019-02-11T12:02:23.118Z,55.38
2019-02-11T12:04:54.284Z,55.31
2019-02-11T12:07:25.517Z,54.93
2019-02-11T12:09:56.698Z,54.71
2019-02-11T12:12:27.986Z,54.65
2019-02-11T12:14:59.245Z,54.50
2019-02-11T12:17:30.644Z,54.54
2019-02-11T12:20:01.839Z,54.39
2019-02-11T12:22:33.188Z,54.47
2019-02-11T12:25:04.610Z,54.22
2019-02-11T12:27:35.890Z,53.80
2019-02-11T12:30:09.850Z,53.97
2019-02-11T12:32:41.027Z,53.79
2019-02-11T12:35:13.186Z,53.85
2019-02-11T12:37:44.495Z,53.61
2019-02-11T12:40:15.685Z,53.35
2019-02-11T12:42:46.829Z,53.25
2019-02-11T12:45:19.821Z,54.21
2019-02-11T12:47:51.031Z,54.60
2019-02-11T12:50:22.270Z,54.95
2019-02-11T12:52:53.627Z,55.24
2019-02-11T12:55:24.939Z,55.23
2019-02-11T12:57:56.190Z,55.04
2019-02-11T13:00:27.457Z,54.86
2019-02-11T13:02:58.699Z,54.79
2019-02-11T13:05:43.906Z,54.59
2019-02-11T13:08:02.944Z,54.57
2019-02-11T13:10:34.233Z,54.01
2019-02-11T13:13:07.021Z,53.59
2019-02-11T13:15:58.552Z,53.10
2019-02-11T13:18:11.555Z,52.84
2019-02-11T13:20:42.949Z,53.10
2019-02-11T13:23:14.193Z,53.68
2019-02-11T13:25:45.635Z,54.11
2019-02-11T13:28:16.870Z,54.38
2019-02-11T13:30:48.110Z,54.71
2019-02-11T13:33:19.314Z,55.00
2019-02-11T13:35:50.603Z,55.44
2019-02-11T13:38:21.798Z,55.85
2019-02-11T13:40:52.938Z,56.27
2019-02-11T13:43:24.371Z,56.71
2019-02-11T13:45:55.758Z,57.12
2019-02-11T13:48:27.160Z,57.36
2019-02-11T13:50:58.464Z,57.70
2019-02-11T13:53:29.699Z,57.85
2019-02-11T13:56:04.748Z,57.94
2019-02-11T13:58:34.087Z,58.11
2019-02-11T14:01:07.207Z,58.03
2019-02-11T14:03:38.382Z,57.93
2019-02-11T14:06:09.580Z,57.90
2019-02-11T14:08:40.884Z,57.93
2019-02-11T14:11:12.145Z,57.84
2019-02-11T14:14:00.610Z,58.00
2019-02-11T14:16:16.553Z,58.34
2019-02-11T14:18:47.691Z,58.14
2019-02-11T14:21:18.942Z,57.48
2019-02-11T14:23:50.212Z,57.05
2019-02-11T14:26:21.482Z,56.80
2019-02-11T14:28:52.733Z,56.83
2019-02-11T14:31:24.295Z,56.57
2019-02-11T14:33:55.602Z,56.02
2019-02-11T14:36:27.225Z,56.10
2019-02-11T14:38:58.857Z,56.46
2019-02-11T14:41:30.399Z,56.28
2019-02-11T14:44:01.825Z,56.27
2019-02-11T14:46:33.281Z,55.83
2019-02-11T14:49:04.761Z,55.15
2019-02-11T14:51:36.410Z,54.99
2019-02-11T14:54:07.869Z,55.06
2019-02-11T14:56:39.316Z,55.04
2019-02-11T14:59:10.827Z,55.25
2019-02-11T15:01:42.020Z,55.49
2019-02-11T15:04:13.306Z,55.60
2019-02-11T15:06:44.508Z,55.76
2019-02-11T15:09:16.165Z,55.95
2019-02-11T15:11:47.312Z,56.17
2019-02-11T15:14:18.653Z,56.62
2019-02-11T15:16:49.786Z,56.99
2019-02-11T15:19:21.082Z,57.42
2019-02-11T15:21:52.312Z,57.64
2019-02-11T15:24:23.698Z,57.87
2019-02-11T15:26:54.856Z,58.00
2019-02-11T15:29:26.103Z,58.13
2019-02-11T15:31:57.349Z,58.05
2019-02-11T15:34:28.528Z,58.05
2019-02-11T15:36:59.841Z,58.15
2019-02-11T15:39:31.198Z,58.14
2019-02-11T15:42:02.577Z,58.17
2019-02-11T15:44:34.200Z,58.21
2019-02-11T15:47:06.289Z,58.17
2019-02-11T15:49:37.575Z,58.05
2019-02-11T15:52:08.834Z,58.00
2019-02-11T15:54:40.129Z,57.99
2019-02-11T15:57:11.419Z,57.94
2019-02-11T15:59:42.666Z,57.91
2019-02-11T16:02:14.054Z,57.85
2019-02-11T16:04:46.330Z,57.85
2019-02-11T16:07:18.371Z,57.83
2019-02-11T16:09:49.820Z,57.78
2019-02-11T16:12:20.955Z,57.75
2019-02-11T16:14:52.110Z,57.67
2019-02-11T16:17:23.282Z,57.62
2019-02-11T16:19:54.597Z,57.57
2019-02-11T16:22:26.021Z,57.50
2019-02-11T16:24:57.379Z,57.46
2019-02-11T16:27:28.880Z,57.41
2019-02-11T16:30:00.263Z,57.28
2019-02-11T16:32:31.718Z,57.19
2019-02-11T16:35:02.867Z,57.12
2019-02-11T16:37:34.074Z,57.14
2019-02-11T16:40:06.515Z,57.20
2019-02-11T16:42:37.891Z,57.09
2019-02-11T16:45:10.064Z,57.09
2019-02-11T16:47:41.195Z,56.98
2019-02-11T16:50:12.416Z,56.91
2019-02-11T16:52:44.048Z,56.95
2019-02-11T16:55:15.418Z,56.95
2019-02-11T16:57:46.646Z,56.83
2019-02-11T17:00:18.363Z,56.92
2019-02-11T17:02:49.479Z,56.95
2019-02-11T17:05:21.195Z,56.91
2019-02-11T17:07:52.425Z,56.93
2019-02-11T17:10:23.606Z,56.98
2019-02-11T17:12:54.720Z,56.99
2019-02-11T17:15:26.091Z,57.02
2019-02-11T17:17:57.340Z,57.02
2019-02-11T17:20:28.613Z,57.07
2019-02-11T17:22:59.971Z,57.17
2019-02-11T17:25:31.227Z,57.19
2019-02-11T17:28:02.558Z,57.22
2019-02-11T17:30:33.922Z,57.29
2019-02-11T17:33:05.318Z,57.35
2019-02-11T17:35:36.566Z,57.43
2019-02-11T17:38:07.808Z,57.46
2019-02-11T17:40:39.045Z,57.51
2019-02-11T17:43:10.191Z,57.47
2019-02-11T17:45:41.449Z,57.48
2019-02-11T17:48:12.731Z,57.48
2019-02-11T17:50:43.995Z,57.51
2019-02-11T17:53:15.397Z,57.55
2019-02-11T17:55:46.661Z,57.55
2019-02-11T17:58:17.974Z,57.56
2019-02-11T18:00:52.957Z,57.54
2019-02-11T18:03:24.200Z,57.57
2019-02-11T18:05:55.388Z,57.56
2019-02-11T18:08:26.614Z,57.59
2019-02-11T18:10:57.873Z,57.59
2019-02-11T18:13:29.151Z,57.52
2019-02-11T18:16:00.399Z,57.50
2019-02-11T18:18:31.627Z,57.39
2019-02-11T18:21:02.968Z,57.40
2019-02-11T18:23:34.197Z,57.35
2019-02-11T18:26:05.491Z,57.16
2019-02-11T18:28:36.767Z,57.18
2019-02-11T18:31:07.935Z,57.05
2019-02-11T18:33:39.211Z,57.00
2019-02-11T18:36:10.590Z,56.69
2019-02-11T18:38:42.049Z,56.59
2019-02-11T18:41:13.291Z,56.70
2019-02-11T18:43:44.449Z,56.69
2019-02-11T18:46:15.706Z,56.69
2019-02-11T18:48:48.061Z,56.58
2019-02-11T18:51:19.190Z,56.59
2019-02-11T18:53:50.449Z,56.61
2019-02-11T18:56:21.795Z,56.62
2019-02-11T18:58:52.988Z,56.56
2019-02-11T19:01:25.180Z,56.63
2019-02-11T19:03:56.516Z,56.67
2019-02-11T19:06:27.737Z,56.57
2019-02-11T19:08:59.085Z,56.71
2019-02-11T19:11:30.348Z,56.66
2019-02-11T19:14:01.516Z,56.75
2019-02-11T19:16:32.766Z,56.88
2019-02-11T19:19:06.298Z,56.88
2019-02-11T19:21:37.643Z,56.82
2019-02-11T19:24:09.089Z,56.76
2019-02-11T19:26:40.283Z,56.85
2019-02-11T19:29:11.532Z,56.85
2019-02-11T19:31:43.234Z,56.85
2019-02-11T19:34:14.571Z,56.91
2019-02-11T19:36:45.840Z,56.91
2019-02-11T19:39:17.071Z,57.00
2019-02-11T19:41:48.749Z,56.90
2019-02-11T19:44:20.107Z,56.89
2019-02-11T19:46:51.467Z,56.82
2019-02-11T19:49:23.363Z,56.82
2019-02-11T19:51:54.905Z,56.77
2019-02-11T19:54:26.074Z,56.78
2019-02-11T19:56:58.606Z,56.77
2019-02-11T19:59:30.589Z,56.62
2019-02-11T20:02:01.845Z,56.62
2019-02-11T20:04:33.950Z,56.67
2019-02-11T20:07:06.073Z,56.71
2019-02-11T20:09:37.928Z,56.79
2019-02-11T20:12:09.240Z,56.75
2019-02-11T20:14:40.476Z,56.60
2019-02-11T20:17:12.276Z,56.62
2019-02-11T20:19:43.524Z,56.57
2019-02-11T20:22:14.730Z,56.69
2019-02-11T20:24:45.914Z,56.64
2019-02-11T20:27:17.888Z,56.72
2019-02-11T20:29:49.597Z,56.59
2019-02-11T20:32:21.048Z,56.59
2019-02-11T20:34:52.856Z,56.67
2019-02-11T20:37:24.586Z,56.67
2019-02-11T20:40:03.209Z,56.60
2019-02-11T20:42:28.754Z,56.55
2019-02-11T20:44:59.976Z,56.52
2019-02-11T20:47:31.180Z,56.55
2019-02-11T20:50:09.051Z,56.57
2019-02-11T20:52:35.446Z,56.61
2019-02-11T20:55:07.226Z,56.64
2019-02-11T20:57:38.526Z,56.69
2019-02-11T21:00:13.639Z,56.70
2019-02-11T21:02:45.059Z,56.78
2019-02-11T21:05:16.333Z,56.85
2019-02-11T21:07:47.654Z,56.93
2019-02-11T21:10:18.948Z,57.04
2019-02-11T21:12:50.109Z,57.14
2019-02-11T21:15:21.302Z,57.20
2019-02-11T21:17:52.558Z,57.26
2019-02-11T21:20:27.157Z,57.45
2019-02-11T21:22:58.571Z,57.45
2019-02-11T21:25:29.795Z,57.50
2019-02-11T21:28:01.000Z,57.58
2019-02-11T21:30:32.182Z,57.66
2019-02-11T21:33:03.369Z,57.71
2019-02-11T21:35:34.557Z,57.77
2019-02-11T21:38:05.819Z,57.87
2019-02-11T21:40:37.161Z,57.82
2019-02-11T21:43:08.439Z,57.87
2019-02-11T21:45:40.559Z,57.94
2019-02-11T21:48:12.057Z,58.05
2019-02-11T21:50:43.355Z,58.07
2019-02-11T21:53:14.495Z,58.17
2019-02-11T21:55:45.770Z,58.18
2019-02-11T21:58:17.074Z,58.23
2019-02-11T22:00:48.289Z,58.27
2019-02-11T22:03:19.591Z,58.29
2019-02-11T22:05:51.011Z,58.34
2019-02-11T22:08:22.249Z,58.28
2019-02-11T22:10:53.437Z,58.43
2019-02-11T22:13:24.651Z,58.48
2019-02-11T22:15:55.974Z,58.51
2019-02-11T22:18:27.381Z,58.59
2019-02-11T22:20:59.580Z,58.63
2019-02-11T22:23:31.322Z,58.69
2019-02-11T22:26:02.624Z,58.81
2019-02-11T22:28:33.876Z,58.80
2019-02-11T22:31:05.079Z,58.91
2019-02-11T22:33:36.486Z,58.92
2019-02-11T22:36:07.751Z,58.96
2019-02-11T22:38:39.021Z,59.09
2019-02-11T22:41:10.406Z,59.09
2019-02-11T22:43:42.002Z,59.09
2019-02-11T22:46:13.259Z,59.12
2019-02-11T22:48:44.477Z,59.15
2019-02-11T22:51:15.936Z,59.19
2019-02-11T22:53:47.142Z,59.22
2019-02-11T22:56:18.424Z,59.13
2019-02-11T22:58:49.664Z,59.17
2019-02-11T23:01:21.099Z,59.32
2019-02-11T23:03:52.367Z,59.26
2019-02-11T23:06:23.647Z,59.23
2019-02-11T23:08:54.894Z,59.33
2019-02-11T23:11:26.061Z,59.31
2019-02-11T23:13:57.339Z,59.48
2019-02-11T23:16:28.480Z,59.44
2019-02-11T23:18:59.775Z,59.49
2019-02-11T23:21:31.012Z,59.48
2019-02-11T23:24:02.206Z,59.38
2019-02-11T23:26:33.450Z,59.48
2019-02-11T23:29:04.605Z,59.60
2019-02-11T23:31:35.816Z,59.62
2019-02-11T23:34:07.991Z,59.57
2019-02-11T23:36:39.262Z,59.63
2019-02-11T23:39:14.982Z,59.58
2019-02-11T23:41:46.159Z,59.56
2019-02-11T23:44:17.416Z,59.61
2019-02-11T23:46:48.599Z,59.55
2019-02-11T23:49:19.821Z,59.52
2019-02-11T23:51:52.079Z,59.48
2019-02-11T23:54:23.288Z,59.73
2019-02-11T23:56:54.464Z,59.76
2019-02-11T23:59:25.779Z,59.84
